NowCast ZoneCast Warnings/Advisories Hourly Track Special Radar
Punta Gorda, Charlotte County Airport, United States  Lat: 26.92N, Lon: 81.99W
ICAO Used: KPGD
Current Conditions
Updated: 3:53 AM EST WED JAN 28 2015
Sun & Moon Information:
Fair
Fair
Temp: 50°F
Humidity: 89%
Wind Speed: N5.8MPH(5KT)
Barometer: 30.10 in.
Dewpoint: 47°F
Heat Index: 50°F
Wind Chill: 48°F
Civil Twilight: 6:50 AM EST Moon Phase:
Waxing Gibbous Moon
Waxing Gibbous Moon
Sunrise: 7:15 AM EST
Sunset: 6:05 PM EST
Civil Twilight: 6:30 PM EST
Forecast for Punta Gorda, Charlotte County Airport, FL, United States:
(Forecast based on TAF for )
1100 AM EST WED JAN 28 2015
  
MORNING AFTERNOON EVENING OVERNIGHT
Clear Clear Clear Clear
Clear Clear Clear Clear
TAF based forecast:
Dated: 1100 AM EST WED JAN 28 2015
Morning...Turning clear with winds from the northnortheast at 14 mph.
Afternoon...Clear with winds from the northnortheast at 14 mph.
Evening...Clear with winds from the northnortheast at 14 mph.
Overnight...Clear with winds from the northnortheast at 14 mph.
Original Encoded TAF:
Dated: 1100 AM EST WED JAN 28 2015
KPGD 280535Z 2806/2906 35007KT P6SM SKC 
     FM281600 02012KT P6SM SKC 
     FM290200 03007KT P6SM SKC